Terminal Aerodrome Forecast
Issued by NWS

Home | Current Version | Previous Version | Graphics & Text | Print | Product List | Glossary On
Versions: 1 2 3 4 5 6 7 8 9 10 11 12 13 14 15 16 17 18 19 20 21 22 23 24 25 26 27 28 29 30 31 32 33 34 35 36
000
FTUS43 KABR 290500
TAFATY
TAF
KATY 290539Z 2906/3006 VRB03KT 1/2SM FG OVC002
      TEMPO 2906/2910 1SM BR OVC003
     FM291400 VRB03KT 2SM BR OVC007
     FM291600 VRB04KT P6SM SCT030 BKN200
     FM292300 VRB04KT P6SM VCSH BKN040=

USA.gov is the U.S. government's official web portal to all federal, state and local government web resources and services.